createdAt,value
2018-07-04T00:03:15.863Z,1009.45
2018-07-04T00:08:12.138Z,1009.56
2018-07-04T00:13:08.963Z,1009.52
2018-07-04T00:18:04.488Z,1009.40
2018-07-04T00:23:00.205Z,1009.39
2018-07-04T00:27:55.736Z,1009.35
2018-07-04T00:32:51.575Z,1009.35
2018-07-04T00:37:47.258Z,1009.42
2018-07-04T00:42:44.075Z,1009.43
2018-07-04T00:47:39.554Z,1009.39
2018-07-04T00:52:35.427Z,1009.40
2018-07-04T00:57:30.848Z,1009.34
2018-07-04T01:02:26.723Z,1009.33
2018-07-04T01:07:22.400Z,1009.39
2018-07-04T01:12:18.368Z,1009.40
2018-07-04T01:17:15.371Z,1009.25
2018-07-04T01:22:10.706Z,1009.29
2018-07-04T01:27:06.509Z,1009.25
2018-07-04T01:32:02.959Z,1009.16
2018-07-04T01:36:59.027Z,1009.15
2018-07-04T01:41:54.832Z,1009.07
2018-07-04T01:46:50.518Z,1009.04
2018-07-04T01:51:47.830Z,1009.03
2018-07-04T01:56:43.350Z,1008.88
2018-07-04T02:01:39.257Z,1008.79
2018-07-04T02:06:34.940Z,1008.84
2018-07-04T02:11:30.710Z,1008.83
2018-07-04T02:16:26.701Z,1008.85
2018-07-04T02:21:23.655Z,1008.92
2018-07-04T02:26:19.194Z,1008.90
2018-07-04T02:31:15.138Z,1008.79
2018-07-04T02:36:11.562Z,1008.82
2018-07-04T02:41:07.315Z,1008.79
2018-07-04T02:46:03.062Z,1008.77
2018-07-04T02:50:58.930Z,1008.72
2018-07-04T02:55:55.325Z,1008.72
2018-07-04T03:00:51.064Z,1008.70
2018-07-04T03:05:46.995Z,1008.64
2018-07-04T03:10:43.053Z,1008.67
2018-07-04T03:15:39.081Z,1008.56
2018-07-04T03:20:34.873Z,1008.58
2018-07-04T03:25:31.739Z,1008.62
2018-07-04T03:30:27.302Z,1008.57
2018-07-04T03:35:24.392Z,1008.62
2018-07-04T03:40:20.055Z,1008.65
2018-07-04T03:45:16.957Z,1008.62
2018-07-04T03:50:12.506Z,1008.49
2018-07-04T03:55:09.012Z,1008.61
2018-07-04T04:00:05.029Z,1008.59
2018-07-04T04:05:01.002Z,1008.67
2018-07-04T04:09:57.254Z,1008.69
2018-07-04T04:14:52.914Z,1008.67
2018-07-04T04:19:48.993Z,1008.58
2018-07-04T04:24:44.861Z,1008.51
2018-07-04T04:29:40.891Z,1008.61
2018-07-04T04:34:36.743Z,1008.67
2018-07-04T04:39:32.974Z,1008.65
2018-07-04T04:44:29.766Z,1008.67
2018-07-04T04:49:26.583Z,1008.63
2018-07-04T04:54:24.293Z,1008.51
2018-07-04T04:59:20.186Z,1008.43
2018-07-04T05:04:16.894Z,1008.44
2018-07-04T05:09:12.688Z,1008.53
2018-07-04T05:14:08.514Z,1008.42
2018-07-04T05:19:04.287Z,1008.51
2018-07-04T05:24:01.416Z,1008.38
2018-07-04T05:28:57.562Z,1008.42
2018-07-04T05:33:55.406Z,1008.49
2018-07-04T05:38:53.136Z,1008.53
2018-07-04T05:43:49.578Z,1008.45
2018-07-04T05:48:45.793Z,1008.51
2018-07-04T05:53:42.932Z,1008.47
2018-07-04T05:58:39.548Z,1008.46
2018-07-04T06:03:35.600Z,1008.42
2018-07-04T06:08:31.332Z,1008.52
2018-07-04T06:13:28.457Z,1008.45
2018-07-04T06:18:26.386Z,1008.39
2018-07-04T06:23:22.414Z,1008.59
2018-07-04T06:28:18.348Z,1008.52
2018-07-04T06:33:14.118Z,1008.50
2018-07-04T06:38:09.880Z,1008.48
2018-07-04T06:43:05.668Z,1008.42
2018-07-04T06:48:01.668Z,1008.48
2018-07-04T06:52:57.932Z,1008.38
2018-07-04T06:57:54.180Z,1008.39
2018-07-04T07:02:50.246Z,1008.48
2018-07-04T07:07:46.012Z,1008.41
2018-07-04T07:12:42.377Z,1008.42
2018-07-04T07:17:38.929Z,1008.40
2018-07-04T07:22:35.115Z,1008.37
2018-07-04T07:27:32.638Z,1008.26
2018-07-04T07:32:28.408Z,1008.30
2018-07-04T07:37:25.664Z,1008.21
2018-07-04T07:42:21.390Z,1008.28
2018-07-04T07:47:18.055Z,1008.25
2018-07-04T07:52:13.964Z,1008.40
2018-07-04T07:57:10.045Z,1008.26
2018-07-04T08:02:07.464Z,1008.16
2018-07-04T08:07:03.272Z,1008.13
2018-07-04T08:11:59.428Z,1008.09
2018-07-04T08:16:56.151Z,1008.11
2018-07-04T08:21:55.594Z,1008.12
2018-07-04T08:26:54.690Z,1008.04
2018-07-04T08:31:52.057Z,1008.14
2018-07-04T08:36:49.536Z,1008.02
2018-07-04T08:41:46.218Z,1007.94
2018-07-04T08:46:42.618Z,1007.98
2018-07-04T08:51:39.446Z,1008.05
2018-07-04T08:56:36.609Z,1007.98
2018-07-04T09:01:32.308Z,1008.04
2018-07-04T09:06:29.254Z,1008.11
2018-07-04T09:11:25.422Z,1008.09
2018-07-04T09:16:22.382Z,1008.06
2018-07-04T09:21:20.369Z,1008.07
2018-07-04T09:26:17.769Z,1008.00
2018-07-04T09:31:14.969Z,1008.06
2018-07-04T09:36:12.252Z,1008.05
2018-07-04T09:41:07.273Z,1008.00
2018-07-04T09:46:03.267Z,1007.95
2018-07-04T09:50:58.505Z,1007.98
2018-07-04T09:55:54.291Z,1008.00
2018-07-04T10:00:49.871Z,1007.96
2018-07-04T10:05:47.883Z,1007.95
2018-07-04T10:10:44.361Z,1007.98
2018-07-04T10:15:42.580Z,1007.94
2018-07-04T10:20:39.893Z,1007.92
2018-07-04T10:25:37.876Z,1007.88
2018-07-04T10:30:32.894Z,1007.90
2018-07-04T10:35:30.449Z,1007.80
2018-07-04T10:40:26.361Z,1007.76
2018-07-04T10:45:23.284Z,1007.76
2018-07-04T10:50:19.640Z,1007.69
2018-07-04T10:55:17.002Z,1007.74
2018-07-04T11:00:13.196Z,1007.57
2018-07-04T11:05:10.050Z,1007.62
2018-07-04T11:10:07.460Z,1007.58
2018-07-04T11:15:05.558Z,1007.40
2018-07-04T11:20:02.840Z,1007.40
2018-07-04T11:24:57.793Z,1007.27
2018-07-04T11:29:53.415Z,1007.24
2018-07-04T11:34:49.785Z,1007.14
2018-07-04T11:39:46.608Z,1007.12
2018-07-04T11:44:44.939Z,1007.14
2018-07-04T11:49:41.667Z,1007.11
2018-07-04T11:54:37.173Z,1007.04
2018-07-04T11:59:35.226Z,1007.00
2018-07-04T12:04:31.457Z,1006.88
2018-07-04T12:09:27.308Z,1006.99
2018-07-04T12:14:24.144Z,1006.82
2018-07-04T12:19:20.703Z,1006.83
2018-07-04T12:24:17.648Z,1006.76
2018-07-04T12:29:14.495Z,1006.82
2018-07-04T12:34:10.206Z,1006.74
2018-07-04T12:39:06.028Z,1006.75
2018-07-04T12:44:01.254Z,1006.74
2018-07-04T12:48:57.202Z,1006.78
2018-07-04T12:53:54.110Z,1006.79
2018-07-04T12:58:49.581Z,1006.65
2018-07-04T13:03:45.504Z,1006.63
2018-07-04T13:08:41.249Z,1006.67
2018-07-04T13:13:37.253Z,1006.69
2018-07-04T13:18:32.683Z,1006.69
2018-07-04T13:23:29.409Z,1006.59
2018-07-04T13:28:25.338Z,1006.60
2018-07-04T13:33:21.719Z,1006.56
2018-07-04T13:38:18.173Z,1006.51
2018-07-04T13:43:14.296Z,1006.42
2018-07-04T13:48:10.283Z,1006.35
2018-07-04T13:53:06.339Z,1006.37
2018-07-04T13:58:03.172Z,1006.26
2018-07-04T14:02:58.689Z,1006.29
2018-07-04T14:07:53.767Z,1006.26
2018-07-04T14:12:48.798Z,1006.36
2018-07-04T14:17:44.862Z,1006.38
2018-07-04T14:22:44.232Z,1006.33
2018-07-04T14:27:39.000Z,1006.28
2018-07-04T14:32:34.880Z,1006.24
2018-07-04T14:37:32.090Z,1006.25
2018-07-04T14:42:27.477Z,1006.30
2018-07-04T14:47:23.438Z,1006.31
2018-07-04T14:52:19.211Z,1006.23
2018-07-04T14:57:16.286Z,1006.20
2018-07-04T15:02:11.882Z,1006.09
2018-07-04T15:07:07.763Z,1006.10
2018-07-04T15:12:04.583Z,1006.03
2018-07-04T15:17:00.257Z,1006.04
2018-07-04T15:21:56.056Z,1006.10
2018-07-04T15:26:52.003Z,1006.05
2018-07-04T15:31:48.113Z,1006.01
2018-07-04T15:36:44.164Z,1006.09
2018-07-04T15:41:39.990Z,1006.13
2018-07-04T15:46:35.749Z,1006.09
2018-07-04T15:51:31.490Z,1006.13
2018-07-04T15:56:27.484Z,1006.07
2018-07-04T16:01:23.362Z,1006.14
2018-07-04T16:06:19.426Z,1006.11
2018-07-04T16:11:16.806Z,1006.06
2018-07-04T16:16:12.679Z,1005.98
2018-07-04T16:21:08.834Z,1006.00
2018-07-04T16:26:04.832Z,1006.02
2018-07-04T16:31:01.035Z,1005.97
2018-07-04T16:35:57.052Z,1005.95
2018-07-04T16:40:52.958Z,1005.85
2018-07-04T16:45:50.149Z,1005.87
2018-07-04T16:50:46.228Z,1005.73
2018-07-04T16:55:43.607Z,1005.71
2018-07-04T17:00:39.308Z,1005.67
2018-07-04T17:05:35.252Z,1005.77
2018-07-04T17:10:32.163Z,1005.87
2018-07-04T17:15:27.813Z,1005.75
2018-07-04T17:20:23.856Z,1005.84
2018-07-04T17:25:19.810Z,1005.80
2018-07-04T17:30:15.827Z,1005.78
2018-07-04T17:35:11.553Z,1005.73
2018-07-04T17:40:07.292Z,1005.73
2018-07-04T17:45:03.215Z,1005.74
2018-07-04T17:49:58.969Z,1005.66
2018-07-04T17:54:54.838Z,1005.53
2018-07-04T17:59:50.615Z,1005.46
2018-07-04T18:04:46.348Z,1005.43
2018-07-04T18:09:42.262Z,1005.45
2018-07-04T18:14:39.141Z,1005.53
2018-07-04T18:19:34.592Z,1005.39
2018-07-04T18:24:31.500Z,1005.46
2018-07-04T18:29:27.130Z,1005.53
2018-07-04T18:34:23.482Z,1005.61
2018-07-04T18:39:19.447Z,1005.55
2018-07-04T18:44:15.993Z,1005.65
2018-07-04T18:49:12.940Z,1005.68
2018-07-04T18:54:08.520Z,1005.66
2018-07-04T18:59:04.467Z,1005.70
2018-07-04T19:04:00.347Z,1005.68
2018-07-04T19:08:56.277Z,1005.65
2018-07-04T19:13:53.189Z,1005.69
2018-07-04T19:18:49.814Z,1005.68
2018-07-04T19:23:45.376Z,1005.70
2018-07-04T19:28:41.171Z,1005.79
2018-07-04T19:33:37.008Z,1005.72
2018-07-04T19:38:34.391Z,1005.72
2018-07-04T19:43:30.049Z,1005.83
2018-07-04T19:48:26.877Z,1005.80
2018-07-04T19:53:22.515Z,1005.87
2018-07-04T19:58:18.804Z,1005.95
2018-07-04T20:03:14.787Z,1006.01
2018-07-04T20:08:11.185Z,1006.26
2018-07-04T20:13:06.960Z,1006.28
2018-07-04T20:18:02.889Z,1006.24
2018-07-04T20:22:58.852Z,1006.14
2018-07-04T20:27:54.578Z,1006.06
2018-07-04T20:32:50.641Z,1006.24
2018-07-04T20:37:46.975Z,1006.16
2018-07-04T20:42:42.722Z,1006.16
2018-07-04T20:47:38.853Z,1006.13
2018-07-04T20:52:34.984Z,1006.14
2018-07-04T20:57:30.861Z,1006.18
2018-07-04T21:02:27.729Z,1006.14
2018-07-04T21:07:23.206Z,1006.16
2018-07-04T21:12:20.203Z,1006.06
2018-07-04T21:17:16.817Z,1005.99
2018-07-04T21:22:13.536Z,1005.87
2018-07-04T21:27:09.069Z,1005.90
2018-07-04T21:32:04.853Z,1005.84
2018-07-04T21:37:00.781Z,1005.92
2018-07-04T21:41:57.797Z,1005.97
2018-07-04T21:46:54.323Z,1005.95
2018-07-04T21:51:50.507Z,1005.95
2018-07-04T21:56:47.439Z,1006.08
2018-07-04T22:01:44.475Z,1006.23
2018-07-04T22:06:40.141Z,1006.27
2018-07-04T22:11:36.090Z,1006.32
2018-07-04T22:16:32.104Z,1006.33
2018-07-04T22:21:29.157Z,1006.42
2018-07-04T22:26:24.631Z,1006.48
2018-07-04T22:31:20.385Z,1006.60
2018-07-04T22:36:16.213Z,1006.53
2018-07-04T22:41:12.104Z,1006.59
2018-07-04T22:46:08.384Z,1006.54
2018-07-04T22:51:04.683Z,1006.61
2018-07-04T22:56:00.558Z,1006.64
2018-07-04T23:00:56.356Z,1006.54
2018-07-04T23:05:52.365Z,1006.65
2018-07-04T23:10:48.660Z,1006.54
2018-07-04T23:15:45.332Z,1006.59
2018-07-04T23:20:41.615Z,1006.57
2018-07-04T23:25:38.412Z,1006.48
2018-07-04T23:30:33.978Z,1006.58
2018-07-04T23:35:31.306Z,1006.50
2018-07-04T23:40:26.884Z,1006.53
2018-07-04T23:45:23.024Z,1006.52
2018-07-04T23:50:18.879Z,1006.56
2018-07-04T23:55:15.374Z,1006.46
